GJSAT EGBB-EGBJ
Flight info
| Callsign | GJSAT |
|---|---|
| Flight time | 0h 23m |
| Altitude | 7000 |
| Route | HON DCT MOVEN DCT NIRMO |
| Aircraft | BN2T/L-SDFGRZ/C |
Departure
| Time | 2026-04-22 11:54 |
|---|---|
| Airport | Birmingham Airport (EGBB) |
Arrival
| Time | 2026-04-22 12:18 |
|---|---|
| Airport | Gloucestershire Airport (EGBJ) |
| Time | Latitude | Longitude | Altitude | Speed | Heading |
|---|---|---|---|---|---|
| 2026-04-22 11:47 | 52.45060 | -1.75149 | 325 ft | 0 kts | 186° |
| 2026-04-22 11:49 | 52.45059 | -1.75150 | 325 ft | 1 kts | 204° |
| 2026-04-22 11:50 | 52.45063 | -1.75157 | 325 ft | 3 kts | 49° |
| 2026-04-22 11:50 | 52.45079 | -1.75142 | 324 ft | 10 kts | 359° |
| 2026-04-22 11:50 | 52.45201 | -1.75231 | 323 ft | 24 kts | 350° |
| 2026-04-22 11:50 | 52.45280 | -1.75072 | 324 ft | 16 kts | 58° |
| 2026-04-22 11:51 | 52.45313 | -1.74987 | 325 ft | 0 kts | 57° |
| 2026-04-22 11:52 | 52.45314 | -1.74986 | 325 ft | 1 kts | 57° |
| 2026-04-22 11:52 | 52.45364 | -1.74855 | 323 ft | 29 kts | 58° |
| 2026-04-22 11:53 | 52.45437 | -1.74863 | 323 ft | 25 kts | 325° |
| 2026-04-22 11:53 | 52.45583 | -1.75052 | 324 ft | 25 kts | 302° |
| 2026-04-22 11:53 | 52.45591 | -1.75034 | 324 ft | 30 kts | 141° |
| 2026-04-22 11:53 | 52.45218 | -1.74614 | 326 ft | 91 kts | 145° |
| 2026-04-22 11:54 | 52.44872 | -1.74219 | 408 ft | 104 kts | 143° |
| 2026-04-22 11:54 | 52.44253 | -1.73587 | 652 ft | 118 kts | 150° |
| 2026-04-22 11:54 | 52.43472 | -1.73053 | 932 ft | 122 kts | 148° |
| 2026-04-22 11:54 | 52.42686 | -1.72441 | 1229 ft | 129 kts | 144° |
| 2026-04-22 11:55 | 52.41859 | -1.71761 | 1502 ft | 135 kts | 146° |
| 2026-04-22 11:55 | 52.41032 | -1.71075 | 1759 ft | 131 kts | 144° |
| 2026-04-22 11:55 | 52.40227 | -1.70355 | 2029 ft | 134 kts | 144° |
| 2026-04-22 11:55 | 52.39411 | -1.69628 | 2276 ft | 132 kts | 143° |
| 2026-04-22 11:56 | 52.38602 | -1.68910 | 2542 ft | 134 kts | 145° |
| 2026-04-22 11:56 | 52.37768 | -1.68218 | 2808 ft | 137 kts | 145° |
| 2026-04-22 11:56 | 52.36916 | -1.67474 | 3049 ft | 137 kts | 144° |
| 2026-04-22 11:56 | 52.36091 | -1.66772 | 3297 ft | 130 kts | 144° |
| 2026-04-22 11:57 | 52.35186 | -1.66492 | 3544 ft | 141 kts | 179° |
| 2026-04-22 11:57 | 52.34255 | -1.67022 | 3804 ft | 145 kts | 193° |
| 2026-04-22 11:57 | 52.33304 | -1.67567 | 4045 ft | 141 kts | 186° |
| 2026-04-22 11:57 | 52.32372 | -1.68032 | 4309 ft | 139 kts | 186° |
| 2026-04-22 11:58 | 52.31432 | -1.68513 | 4570 ft | 141 kts | 188° |
| 2026-04-22 11:58 | 52.30509 | -1.68999 | 4827 ft | 137 kts | 186° |
| 2026-04-22 11:58 | 52.29623 | -1.69453 | 5083 ft | 131 kts | 186° |
| 2026-04-22 11:58 | 52.28755 | -1.69897 | 5334 ft | 129 kts | 185° |
| 2026-04-22 11:59 | 52.27879 | -1.70332 | 5592 ft | 128 kts | 185° |
| 2026-04-22 11:59 | 52.27030 | -1.70764 | 5852 ft | 132 kts | 186° |
| 2026-04-22 11:59 | 52.26153 | -1.71215 | 6097 ft | 130 kts | 186° |
| 2026-04-22 11:59 | 52.25310 | -1.71638 | 6327 ft | 126 kts | 184° |
| 2026-04-22 12:00 | 52.24483 | -1.72045 | 6574 ft | 123 kts | 185° |
| 2026-04-22 12:00 | 52.23675 | -1.72470 | 6825 ft | 121 kts | 185° |
| 2026-04-22 12:00 | 52.22871 | -1.72903 | 7060 ft | 120 kts | 185° |
| 2026-04-22 12:00 | 52.22077 | -1.73283 | 7343 ft | 118 kts | 184° |
| 2026-04-22 12:01 | 52.21239 | -1.73671 | 7407 ft | 134 kts | 184° |
| 2026-04-22 12:01 | 52.20306 | -1.74136 | 7407 ft | 145 kts | 188° |
| 2026-04-22 12:01 | 52.19331 | -1.74664 | 7407 ft | 150 kts | 187° |
| 2026-04-22 12:01 | 52.18324 | -1.75170 | 7400 ft | 153 kts | 187° |
| 2026-04-22 12:02 | 52.17297 | -1.75715 | 7388 ft | 152 kts | 190° |
| 2026-04-22 12:02 | 52.16310 | -1.76248 | 7370 ft | 146 kts | 189° |
| 2026-04-22 12:02 | 52.15430 | -1.76695 | 7376 ft | 143 kts | 188° |
| 2026-04-22 12:02 | 52.14473 | -1.77164 | 7370 ft | 144 kts | 188° |
| 2026-04-22 12:03 | 52.13513 | -1.77630 | 7373 ft | 144 kts | 187° |
| 2026-04-22 12:03 | 52.12558 | -1.78111 | 7369 ft | 144 kts | 188° |
| 2026-04-22 12:03 | 52.11588 | -1.78591 | 7371 ft | 145 kts | 188° |
| 2026-04-22 12:03 | 52.10626 | -1.79075 | 7372 ft | 147 kts | 189° |
| 2026-04-22 12:04 | 52.09653 | -1.79582 | 7362 ft | 146 kts | 188° |
| 2026-04-22 12:04 | 52.08685 | -1.80070 | 7369 ft | 146 kts | 188° |
| 2026-04-22 12:04 | 52.07710 | -1.80559 | 7335 ft | 145 kts | 188° |
| 2026-04-22 12:04 | 52.06757 | -1.81039 | 7335 ft | 145 kts | 188° |
| 2026-04-22 12:05 | 52.05789 | -1.81571 | 7346 ft | 147 kts | 192° |
| 2026-04-22 12:05 | 52.04824 | -1.82079 | 7329 ft | 144 kts | 187° |
| 2026-04-22 12:05 | 52.03857 | -1.82560 | 7345 ft | 146 kts | 187° |
| 2026-04-22 12:05 | 52.02894 | -1.83058 | 7342 ft | 148 kts | 187° |
| 2026-04-22 12:06 | 52.01915 | -1.83562 | 7340 ft | 147 kts | 187° |
| 2026-04-22 12:06 | 52.00948 | -1.84083 | 7334 ft | 144 kts | 187° |
| 2026-04-22 12:06 | 51.99998 | -1.84607 | 7326 ft | 145 kts | 187° |
| 2026-04-22 12:06 | 51.99037 | -1.85135 | 7331 ft | 146 kts | 187° |
| 2026-04-22 12:07 | 51.98070 | -1.85663 | 7297 ft | 149 kts | 187° |
| 2026-04-22 12:07 | 51.97058 | -1.86211 | 7149 ft | 157 kts | 188° |
| 2026-04-22 12:07 | 51.95996 | -1.86795 | 6919 ft | 163 kts | 189° |
| 2026-04-22 12:07 | 51.94908 | -1.87373 | 6688 ft | 165 kts | 188° |
| 2026-04-22 12:08 | 51.93807 | -1.87903 | 6436 ft | 168 kts | 186° |
| 2026-04-22 12:08 | 51.92684 | -1.88487 | 6178 ft | 169 kts | 188° |
| 2026-04-22 12:08 | 51.91588 | -1.89256 | 5908 ft | 176 kts | 203° |
| 2026-04-22 12:08 | 51.90741 | -1.90782 | 5626 ft | 192 kts | 233° |
| 2026-04-22 12:09 | 51.90493 | -1.92930 | 5345 ft | 200 kts | 271° |
| 2026-04-22 12:09 | 51.90925 | -1.95073 | 5090 ft | 201 kts | 293° |
| 2026-04-22 12:09 | 51.91294 | -1.97225 | 4829 ft | 201 kts | 275° |
| 2026-04-22 12:09 | 51.91375 | -1.99481 | 4576 ft | 200 kts | 268° |
| 2026-04-22 12:10 | 51.91478 | -2.01734 | 4311 ft | 201 kts | 274° |
| 2026-04-22 12:10 | 51.91660 | -2.03984 | 4061 ft | 200 kts | 276° |
| 2026-04-22 12:10 | 51.91821 | -2.06168 | 3989 ft | 194 kts | 276° |
| 2026-04-22 12:10 | 51.91983 | -2.08312 | 3990 ft | 187 kts | 276° |
| 2026-04-22 12:11 | 51.92147 | -2.10341 | 3982 ft | 177 kts | 277° |
| 2026-04-22 12:11 | 51.92308 | -2.12344 | 3797 ft | 183 kts | 277° |
| 2026-04-22 12:11 | 51.92451 | -2.14331 | 3562 ft | 176 kts | 277° |
| 2026-04-22 12:11 | 51.92539 | -2.15654 | 3369 ft | 173 kts | 276° |
| 2026-04-22 12:12 | 51.92705 | -2.18224 | 3021 ft | 172 kts | 277° |
| 2026-04-22 12:12 | 51.92806 | -2.19520 | 2845 ft | 171 kts | 278° |
| 2026-04-22 12:12 | 51.92947 | -2.21425 | 2584 ft | 170 kts | 277° |
| 2026-04-22 12:12 | 51.93076 | -2.23258 | 2344 ft | 171 kts | 276° |
| 2026-04-22 12:13 | 51.93193 | -2.25170 | 2096 ft | 170 kts | 279° |
| 2026-04-22 12:13 | 51.93351 | -2.27046 | 1988 ft | 161 kts | 280° |
| 2026-04-22 12:13 | 51.93450 | -2.28776 | 1977 ft | 152 kts | 265° |
| 2026-04-22 12:13 | 51.92938 | -2.30125 | 2052 ft | 133 kts | 195° |
| 2026-04-22 12:14 | 51.92071 | -2.30338 | 2091 ft | 120 kts | 165° |
| 2026-04-22 12:14 | 51.91284 | -2.30015 | 2057 ft | 111 kts | 145° |
| 2026-04-22 12:14 | 51.90618 | -2.29395 | 1849 ft | 111 kts | 132° |
| 2026-04-22 12:14 | 51.90059 | -2.28604 | 1900 ft | 104 kts | 126° |
| 2026-04-22 12:15 | 51.89551 | -2.27713 | 1797 ft | 111 kts | 120° |
| 2026-04-22 12:15 | 51.89137 | -2.26696 | 1721 ft | 103 kts | 114° |
| 2026-04-22 12:15 | 51.88854 | -2.25623 | 1437 ft | 106 kts | 101° |
| 2026-04-22 12:15 | 51.88859 | -2.24464 | 1284 ft | 101 kts | 84° |
| 2026-04-22 12:16 | 51.88948 | -2.23376 | 1112 ft | 89 kts | 85° |
| 2026-04-22 12:16 | 51.89000 | -2.22521 | 983 ft | 76 kts | 88° |
| 2026-04-22 12:16 | 51.89069 | -2.21622 | 811 ft | 83 kts | 87° |
| 2026-04-22 12:16 | 51.89133 | -2.20721 | 680 ft | 80 kts | 86° |
| 2026-04-22 12:17 | 51.89204 | -2.19821 | 590 ft | 81 kts | 88° |
| 2026-04-22 12:17 | 51.89255 | -2.18993 | 430 ft | 67 kts | 85° |
| 2026-04-22 12:17 | 51.89300 | -2.18294 | 180 ft | 62 kts | 87° |
| 2026-04-22 12:17 | 51.89314 | -2.18072 | 111 ft | 64 kts | 84° |
| 2026-04-22 12:18 | 51.89364 | -2.17377 | 88 ft | 58 kts | 84° |
| 2026-04-22 12:18 | 51.89399 | -2.16855 | 89 ft | 35 kts | 83° |
| 2026-04-22 12:18 | 51.89426 | -2.16523 | 91 ft | 24 kts | 85° |
| 2026-04-22 12:18 | 51.89441 | -2.16310 | 91 ft | 15 kts | 88° |
| 2026-04-22 12:19 | 51.89441 | -2.16308 | 91 ft | 14 kts | 88° |
| 2026-04-22 12:19 | 51.89449 | -2.16118 | 91 ft | 27 kts | 83° |
| 2026-04-22 12:19 | 51.89435 | -2.15923 | 95 ft | 20 kts | 123° |
| 2026-04-22 12:19 | 51.89347 | -2.15790 | 94 ft | 2 kts | 227° |
| 2026-04-22 12:20 | 51.89345 | -2.15803 | 94 ft | 0 kts | 259° |